sensor_id;sensor_type;location;lat;lon;timestamp;P1;durP1;ratioP1;P2;durP2;ratioP2
17955;SDS011;27666;51.498;11.966;2023-05-14T00:01:26;7.33;;;6.30;;
17955;SDS011;27666;51.498;11.966;2023-05-14T00:04:12;8.00;;;6.43;;
17955;SDS011;27666;51.498;11.966;2023-05-14T00:06:59;8.03;;;6.97;;
17955;SDS011;27666;51.498;11.966;2023-05-14T00:09:45;8.27;;;6.47;;
17955;SDS011;27666;51.498;11.966;2023-05-14T00:12:32;11.03;;;6.50;;
17955;SDS011;27666;51.498;11.966;2023-05-14T00:15:20;10.23;;;7.00;;
17955;SDS011;27666;51.498;11.966;2023-05-14T00:18:07;8.77;;;6.93;;
17955;SDS011;27666;51.498;11.966;2023-05-14T00:20:55;8.77;;;7.07;;
17955;SDS011;27666;51.498;11.966;2023-05-14T00:23:42;10.77;;;6.90;;
17955;SDS011;27666;51.498;11.966;2023-05-14T00:26:28;7.93;;;6.90;;
17955;SDS011;27666;51.498;11.966;2023-05-14T00:29:15;9.03;;;7.87;;
17955;SDS011;27666;51.498;11.966;2023-05-14T00:32:03;8.00;;;7.03;;
17955;SDS011;27666;51.498;11.966;2023-05-14T00:34:50;10.63;;;7.40;;
17955;SDS011;27666;51.498;11.966;2023-05-14T00:37:36;8.20;;;7.40;;
17955;SDS011;27666;51.498;11.966;2023-05-14T00:40:24;8.43;;;6.70;;
17955;SDS011;27666;51.498;11.966;2023-05-14T00:43:12;14.40;;;7.27;;
17955;SDS011;27666;51.498;11.966;2023-05-14T00:45:58;9.30;;;7.13;;
17955;SDS011;27666;51.498;11.966;2023-05-14T00:48:47;11.73;;;6.80;;
17955;SDS011;27666;51.498;11.966;2023-05-14T00:51:34;8.53;;;7.17;;
17955;SDS011;27666;51.498;11.966;2023-05-14T00:54:20;10.47;;;7.00;;
17955;SDS011;27666;51.498;11.966;2023-05-14T00:57:07;10.63;;;7.83;;
17955;SDS011;27666;51.498;11.966;2023-05-14T00:59:54;12.83;;;7.23;;
17955;SDS011;27666;51.498;11.966;2023-05-14T01:02:44;12.17;;;7.37;;
17955;SDS011;27666;51.498;11.966;2023-05-14T01:05:35;10.13;;;7.00;;
17955;SDS011;27666;51.498;11.966;2023-05-14T01:08:30;9.00;;;6.90;;
17955;SDS011;27666;51.498;11.966;2023-05-14T01:11:21;12.33;;;6.77;;
17955;SDS011;27666;51.498;11.966;2023-05-14T01:14:12;8.80;;;7.27;;
17955;SDS011;27666;51.498;11.966;2023-05-14T01:17:05;8.60;;;7.37;;
17955;SDS011;27666;51.498;11.966;2023-05-14T01:19:54;11.50;;;7.67;;
17955;SDS011;27666;51.498;11.966;2023-05-14T01:22:44;8.27;;;7.07;;
17955;SDS011;27666;51.498;11.966;2023-05-14T01:25:31;8.40;;;7.10;;
17955;SDS011;27666;51.498;11.966;2023-05-14T01:28:18;8.03;;;7.17;;
17955;SDS011;27666;51.498;11.966;2023-05-14T01:31:09;9.83;;;7.07;;
17955;SDS011;27666;51.498;11.966;2023-05-14T01:34:01;9.33;;;6.53;;
17955;SDS011;27666;51.498;11.966;2023-05-14T01:36:49;8.80;;;7.30;;
17955;SDS011;27666;51.498;11.966;2023-05-14T01:39:38;9.17;;;7.20;;
17955;SDS011;27666;51.498;11.966;2023-05-14T01:42:27;8.37;;;6.80;;
17955;SDS011;27666;51.498;11.966;2023-05-14T01:45:14;9.30;;;7.50;;
17955;SDS011;27666;51.498;11.966;2023-05-14T01:48:00;8.97;;;7.30;;
17955;SDS011;27666;51.498;11.966;2023-05-14T01:50:47;10.93;;;7.67;;
17955;SDS011;27666;51.498;11.966;2023-05-14T01:53:33;10.90;;;7.47;;
17955;SDS011;27666;51.498;11.966;2023-05-14T01:56:22;8.73;;;7.17;;
17955;SDS011;27666;51.498;11.966;2023-05-14T01:59:09;9.83;;;7.30;;
17955;SDS011;27666;51.498;11.966;2023-05-14T02:01:56;8.00;;;7.10;;
17955;SDS011;27666;51.498;11.966;2023-05-14T02:04:43;9.73;;;7.90;;
17955;SDS011;27666;51.498;11.966;2023-05-14T02:07:30;8.83;;;7.67;;
17955;SDS011;27666;51.498;11.966;2023-05-14T02:10:17;8.43;;;7.53;;
17955;SDS011;27666;51.498;11.966;2023-05-14T02:13:05;8.77;;;7.50;;
17955;SDS011;27666;51.498;11.966;2023-05-14T02:15:53;8.40;;;6.63;;
17955;SDS011;27666;51.498;11.966;2023-05-14T02:18:39;9.70;;;7.67;;
17955;SDS011;27666;51.498;11.966;2023-05-14T02:21:26;12.50;;;7.70;;
17955;SDS011;27666;51.498;11.966;2023-05-14T02:24:12;9.80;;;7.77;;
17955;SDS011;27666;51.498;11.966;2023-05-14T02:26:59;9.13;;;6.93;;
17955;SDS011;27666;51.498;11.966;2023-05-14T02:29:47;11.20;;;7.27;;
17955;SDS011;27666;51.498;11.966;2023-05-14T02:32:33;8.30;;;7.10;;
17955;SDS011;27666;51.498;11.966;2023-05-14T02:35:20;10.60;;;7.20;;
17955;SDS011;27666;51.498;11.966;2023-05-14T02:38:07;8.67;;;7.57;;
17955;SDS011;27666;51.498;11.966;2023-05-14T02:40:53;8.47;;;6.60;;
17955;SDS011;27666;51.498;11.966;2023-05-14T02:43:39;8.63;;;7.17;;
17955;SDS011;27666;51.498;11.966;2023-05-14T02:46:29;8.90;;;7.60;;
17955;SDS011;27666;51.498;11.966;2023-05-14T02:49:16;9.10;;;7.30;;
17955;SDS011;27666;51.498;11.966;2023-05-14T02:52:02;10.03;;;7.10;;
17955;SDS011;27666;51.498;11.966;2023-05-14T02:54:49;9.20;;;7.53;;
17955;SDS011;27666;51.498;11.966;2023-05-14T02:57:36;11.33;;;7.10;;
17955;SDS011;27666;51.498;11.966;2023-05-14T03:00:23;8.93;;;7.10;;
17955;SDS011;27666;51.498;11.966;2023-05-14T03:03:12;9.27;;;7.40;;
17955;SDS011;27666;51.498;11.966;2023-05-14T03:05:59;9.83;;;7.07;;
17955;SDS011;27666;51.498;11.966;2023-05-14T03:08:45;10.13;;;7.20;;
17955;SDS011;27666;51.498;11.966;2023-05-14T03:11:32;10.37;;;7.37;;
17955;SDS011;27666;51.498;11.966;2023-05-14T03:14:19;10.10;;;7.23;;
17955;SDS011;27666;51.498;11.966;2023-05-14T03:17:05;14.17;;;7.00;;
17955;SDS011;27666;51.498;11.966;2023-05-14T03:19:53;8.70;;;7.40;;
17955;SDS011;27666;51.498;11.966;2023-05-14T03:22:39;9.63;;;7.57;;
17955;SDS011;27666;51.498;11.966;2023-05-14T03:25:26;10.03;;;7.83;;
17955;SDS011;27666;51.498;11.966;2023-05-14T03:28:12;12.27;;;7.63;;
17955;SDS011;27666;51.498;11.966;2023-05-14T03:30:59;9.33;;;7.63;;
17955;SDS011;27666;51.498;11.966;2023-05-14T03:33:45;9.57;;;7.47;;
17955;SDS011;27666;51.498;11.966;2023-05-14T03:36:33;10.10;;;7.77;;
17955;SDS011;27666;51.498;11.966;2023-05-14T03:39:22;9.13;;;7.90;;
17955;SDS011;27666;51.498;11.966;2023-05-14T03:42:09;8.03;;;7.23;;
17955;SDS011;27666;51.498;11.966;2023-05-14T03:44:55;10.73;;;8.03;;
17955;SDS011;27666;51.498;11.966;2023-05-14T03:47:41;11.43;;;7.33;;
17955;SDS011;27666;51.498;11.966;2023-05-14T03:50:29;9.10;;;7.47;;
17955;SDS011;27666;51.498;11.966;2023-05-14T03:53:16;8.97;;;7.60;;
17955;SDS011;27666;51.498;11.966;2023-05-14T03:56:03;8.87;;;7.90;;
17955;SDS011;27666;51.498;11.966;2023-05-14T03:58:50;12.30;;;7.37;;
17955;SDS011;27666;51.498;11.966;2023-05-14T04:01:37;9.80;;;7.70;;
17955;SDS011;27666;51.498;11.966;2023-05-14T04:04:23;10.73;;;8.63;;
17955;SDS011;27666;51.498;11.966;2023-05-14T04:07:09;9.97;;;8.13;;
17955;SDS011;27666;51.498;11.966;2023-05-14T04:09:57;9.87;;;8.17;;
17955;SDS011;27666;51.498;11.966;2023-05-14T04:12:47;11.23;;;7.90;;
17955;SDS011;27666;51.498;11.966;2023-05-14T04:15:34;8.90;;;7.60;;
17955;SDS011;27666;51.498;11.966;2023-05-14T04:18:22;8.10;;;6.97;;
17955;SDS011;27666;51.498;11.966;2023-05-14T04:21:09;9.63;;;7.23;;
17955;SDS011;27666;51.498;11.966;2023-05-14T04:23:56;9.73;;;7.17;;
17955;SDS011;27666;51.498;11.966;2023-05-14T04:26:44;11.40;;;7.87;;
17955;SDS011;27666;51.498;11.966;2023-05-14T04:29:31;9.03;;;7.10;;
17955;SDS011;27666;51.498;11.966;2023-05-14T04:32:17;9.73;;;7.63;;
17955;SDS011;27666;51.498;11.966;2023-05-14T04:35:04;11.03;;;7.70;;
17955;SDS011;27666;51.498;11.966;2023-05-14T04:37:51;10.57;;;7.80;;
17955;SDS011;27666;51.498;11.966;2023-05-14T04:40:38;9.67;;;7.37;;
17955;SDS011;27666;51.498;11.966;2023-05-14T04:43:26;9.60;;;7.77;;
17955;SDS011;27666;51.498;11.966;2023-05-14T04:46:13;12.07;;;8.43;;
17955;SDS011;27666;51.498;11.966;2023-05-14T04:48:59;12.20;;;8.33;;
17955;SDS011;27666;51.498;11.966;2023-05-14T04:51:46;9.13;;;8.23;;
17955;SDS011;27666;51.498;11.966;2023-05-14T04:54:33;11.37;;;8.60;;
17955;SDS011;27666;51.498;11.966;2023-05-14T04:57:19;11.00;;;8.07;;
17955;SDS011;27666;51.498;11.966;2023-05-14T05:00:07;9.07;;;7.77;;
17955;SDS011;27666;51.498;11.966;2023-05-14T05:02:55;10.77;;;7.67;;
17955;SDS011;27666;51.498;11.966;2023-05-14T05:05:42;9.13;;;7.07;;
17955;SDS011;27666;51.498;11.966;2023-05-14T05:08:29;8.93;;;7.23;;
17955;SDS011;27666;51.498;11.966;2023-05-14T05:11:15;9.17;;;7.17;;
17955;SDS011;27666;51.498;11.966;2023-05-14T05:14:02;9.43;;;7.50;;
17955;SDS011;27666;51.498;11.966;2023-05-14T05:16:50;8.80;;;6.93;;
17955;SDS011;27666;51.498;11.966;2023-05-14T05:19:37;10.03;;;7.60;;
17955;SDS011;27666;51.498;11.966;2023-05-14T05:22:28;13.90;;;7.50;;
17955;SDS011;27666;51.498;11.966;2023-05-14T05:25:14;11.73;;;7.70;;
17955;SDS011;27666;51.498;11.966;2023-05-14T05:28:01;10.07;;;7.13;;
17955;SDS011;27666;51.498;11.966;2023-05-14T05:30:47;9.50;;;7.50;;
17955;SDS011;27666;51.498;11.966;2023-05-14T05:33:35;10.37;;;7.77;;
17955;SDS011;27666;51.498;11.966;2023-05-14T05:36:22;9.97;;;6.50;;
17955;SDS011;27666;51.498;11.966;2023-05-14T05:39:09;8.93;;;6.70;;
17955;SDS011;27666;51.498;11.966;2023-05-14T05:41:56;7.87;;;7.00;;
17955;SDS011;27666;51.498;11.966;2023-05-14T05:44:42;8.10;;;6.30;;
17955;SDS011;27666;51.498;11.966;2023-05-14T05:47:29;10.50;;;6.63;;
17955;SDS011;27666;51.498;11.966;2023-05-14T05:50:17;9.07;;;6.63;;
17955;SDS011;27666;51.498;11.966;2023-05-14T05:53:04;8.82;;;6.50;;
17955;SDS011;27666;51.498;11.966;2023-05-14T05:55:50;6.70;;;6.00;;
17955;SDS011;27666;51.498;11.966;2023-05-14T05:58:37;8.35;;;6.45;;
17955;SDS011;27666;51.498;11.966;2023-05-14T06:01:23;9.05;;;6.47;;
17955;SDS011;27666;51.498;11.966;2023-05-14T06:04:10;8.40;;;6.50;;
17955;SDS011;27666;51.498;11.966;2023-05-14T06:06:58;7.10;;;6.20;;
17955;SDS011;27666;51.498;11.966;2023-05-14T06:09:45;6.05;;;5.45;;
17955;SDS011;27666;51.498;11.966;2023-05-14T06:12:31;7.88;;;5.68;;
17955;SDS011;27666;51.498;11.966;2023-05-14T06:15:17;7.38;;;5.30;;
17955;SDS011;27666;51.498;11.966;2023-05-14T06:18:04;6.30;;;5.32;;
17955;SDS011;27666;51.498;11.966;2023-05-14T06:20:51;6.03;;;5.10;;
17955;SDS011;27666;51.498;11.966;2023-05-14T06:23:41;6.55;;;5.40;;
17955;SDS011;27666;51.498;11.966;2023-05-14T06:26:28;6.88;;;5.15;;
17955;SDS011;27666;51.498;11.966;2023-05-14T06:29:14;6.30;;;5.32;;
17955;SDS011;27666;51.498;11.966;2023-05-14T06:32:01;7.03;;;5.05;;
17955;SDS011;27666;51.498;11.966;2023-05-14T06:34:48;6.03;;;5.00;;
17955;SDS011;27666;51.498;11.966;2023-05-14T06:37:37;6.43;;;5.32;;
17955;SDS011;27666;51.498;11.966;2023-05-14T06:40:25;5.85;;;5.00;;
17955;SDS011;27666;51.498;11.966;2023-05-14T06:43:12;5.88;;;5.00;;
17955;SDS011;27666;51.498;11.966;2023-05-14T06:45:58;5.45;;;4.85;;
17955;SDS011;27666;51.498;11.966;2023-05-14T06:48:45;5.50;;;4.90;;
17955;SDS011;27666;51.498;11.966;2023-05-14T06:51:31;5.75;;;4.85;;
17955;SDS011;27666;51.498;11.966;2023-05-14T06:54:18;5.85;;;5.32;;
17955;SDS011;27666;51.498;11.966;2023-05-14T06:57:06;7.78;;;5.82;;
17955;SDS011;27666;51.498;11.966;2023-05-14T06:59:52;5.95;;;5.15;;
17955;SDS011;27666;51.498;11.966;2023-05-14T07:02:39;7.20;;;4.88;;
17955;SDS011;27666;51.498;11.966;2023-05-14T07:05:25;6.57;;;5.50;;
17955;SDS011;27666;51.498;11.966;2023-05-14T07:08:12;6.18;;;5.10;;
17955;SDS011;27666;51.498;11.966;2023-05-14T07:10:59;5.72;;;5.10;;
17955;SDS011;27666;51.498;11.966;2023-05-14T07:13:47;7.10;;;5.22;;
17955;SDS011;27666;51.498;11.966;2023-05-14T07:16:34;6.47;;;5.80;;
17955;SDS011;27666;51.498;11.966;2023-05-14T07:19:20;6.97;;;5.13;;
17955;SDS011;27666;51.498;11.966;2023-05-14T07:22:07;7.30;;;4.93;;
17955;SDS011;27666;51.498;11.966;2023-05-14T07:24:53;6.00;;;5.40;;
17955;SDS011;27666;51.498;11.966;2023-05-14T07:27:40;6.55;;;5.60;;
17955;SDS011;27666;51.498;11.966;2023-05-14T07:30:28;6.63;;;5.38;;
17955;SDS011;27666;51.498;11.966;2023-05-14T07:33:15;5.15;;;4.63;;
17955;SDS011;27666;51.498;11.966;2023-05-14T07:36:01;6.15;;;5.40;;
17955;SDS011;27666;51.498;11.966;2023-05-14T07:38:48;6.18;;;5.07;;
17955;SDS011;27666;51.498;11.966;2023-05-14T07:41:35;5.78;;;5.22;;
17955;SDS011;27666;51.498;11.966;2023-05-14T07:44:22;6.18;;;5.22;;
17955;SDS011;27666;51.498;11.966;2023-05-14T07:47:09;6.28;;;4.97;;
17955;SDS011;27666;51.498;11.966;2023-05-14T07:49:56;7.32;;;5.25;;
17955;SDS011;27666;51.498;11.966;2023-05-14T07:52:42;7.25;;;5.30;;
17955;SDS011;27666;51.498;11.966;2023-05-14T07:55:29;8.10;;;5.05;;
17955;SDS011;27666;51.498;11.966;2023-05-14T07:58:15;7.05;;;5.22;;
17955;SDS011;27666;51.498;11.966;2023-05-14T08:01:02;7.15;;;5.40;;
17955;SDS011;27666;51.498;11.966;2023-05-14T08:03:52;8.00;;;5.22;;
17955;SDS011;27666;51.498;11.966;2023-05-14T08:06:39;7.43;;;5.68;;
17955;SDS011;27666;51.498;11.966;2023-05-14T08:09:26;5.63;;;4.97;;
17955;SDS011;27666;51.498;11.966;2023-05-14T08:12:12;7.63;;;5.10;;
17955;SDS011;27666;51.498;11.966;2023-05-14T08:14:59;7.93;;;4.70;;
17955;SDS011;27666;51.498;11.966;2023-05-14T08:17:46;5.57;;;5.00;;
17955;SDS011;27666;51.498;11.966;2023-05-14T08:20:34;7.05;;;5.53;;
17955;SDS011;27666;51.498;11.966;2023-05-14T08:23:20;6.53;;;5.07;;
17955;SDS011;27666;51.498;11.966;2023-05-14T08:26:07;5.53;;;4.68;;
17955;SDS011;27666;51.498;11.966;2023-05-14T08:28:53;7.20;;;5.28;;
17955;SDS011;27666;51.498;11.966;2023-05-14T08:31:40;9.20;;;5.55;;
17955;SDS011;27666;51.498;11.966;2023-05-14T08:34:26;6.15;;;5.55;;
17955;SDS011;27666;51.498;11.966;2023-05-14T08:37:15;7.93;;;5.25;;
17955;SDS011;27666;51.498;11.966;2023-05-14T08:40:02;5.60;;;4.30;;
17955;SDS011;27666;51.498;11.966;2023-05-14T08:42:48;8.77;;;5.72;;
17955;SDS011;27666;51.498;11.966;2023-05-14T08:45:36;8.45;;;5.82;;
17955;SDS011;27666;51.498;11.966;2023-05-14T08:48:24;6.18;;;5.57;;
17955;SDS011;27666;51.498;11.966;2023-05-14T08:51:14;8.30;;;4.70;;
17955;SDS011;27666;51.498;11.966;2023-05-14T08:54:02;7.47;;;5.30;;
17955;SDS011;27666;51.498;11.966;2023-05-14T08:56:50;6.88;;;5.20;;
17955;SDS011;27666;51.498;11.966;2023-05-14T08:59:37;6.32;;;4.65;;
17955;SDS011;27666;51.498;11.966;2023-05-14T09:02:24;5.13;;;4.63;;
17955;SDS011;27666;51.498;11.966;2023-05-14T09:05:13;7.22;;;5.00;;
17955;SDS011;27666;51.498;11.966;2023-05-14T09:08:02;5.72;;;4.90;;
17955;SDS011;27666;51.498;11.966;2023-05-14T09:10:50;5.57;;;4.78;;
17955;SDS011;27666;51.498;11.966;2023-05-14T09:13:39;7.60;;;4.88;;
17955;SDS011;27666;51.498;11.966;2023-05-14T09:16:25;6.05;;;4.60;;
17955;SDS011;27666;51.498;11.966;2023-05-14T09:19:12;7.30;;;5.18;;
17955;SDS011;27666;51.498;11.966;2023-05-14T09:22:02;5.65;;;5.15;;
17955;SDS011;27666;51.498;11.966;2023-05-14T09:25:00;6.82;;;5.38;;
17955;SDS011;27666;51.498;11.966;2023-05-14T09:27:50;9.60;;;5.10;;
17955;SDS011;27666;51.498;11.966;2023-05-14T09:30:40;6.72;;;5.18;;
17955;SDS011;27666;51.498;11.966;2023-05-14T09:33:27;6.57;;;5.90;;
17955;SDS011;27666;51.498;11.966;2023-05-14T09:36:15;7.25;;;5.05;;
17955;SDS011;27666;51.498;11.966;2023-05-14T09:39:02;7.18;;;5.22;;
17955;SDS011;27666;51.498;11.966;2023-05-14T09:41:49;5.63;;;5.05;;
17955;SDS011;27666;51.498;11.966;2023-05-14T09:44:38;7.75;;;5.05;;
17955;SDS011;27666;51.498;11.966;2023-05-14T09:47:25;5.70;;;4.75;;
17955;SDS011;27666;51.498;11.966;2023-05-14T09:50:11;6.60;;;4.53;;
17955;SDS011;27666;51.498;11.966;2023-05-14T09:52:58;11.02;;;5.20;;
17955;SDS011;27666;51.498;11.966;2023-05-14T09:55:45;8.65;;;5.05;;
17955;SDS011;27666;51.498;11.966;2023-05-14T09:58:32;8.00;;;4.72;;
17955;SDS011;27666;51.498;11.966;2023-05-14T10:01:20;6.38;;;4.93;;
17955;SDS011;27666;51.498;11.966;2023-05-14T10:04:08;5.22;;;4.65;;
17955;SDS011;27666;51.498;11.966;2023-05-14T10:06:56;7.60;;;5.15;;
17955;SDS011;27666;51.498;11.966;2023-05-14T10:09:42;6.93;;;5.75;;
17955;SDS011;27666;51.498;11.966;2023-05-14T10:12:32;5.93;;;5.32;;
17955;SDS011;27666;51.498;11.966;2023-05-14T10:15:22;8.90;;;4.88;;
17955;SDS011;27666;51.498;11.966;2023-05-14T10:18:16;7.10;;;5.40;;
17955;SDS011;27666;51.498;11.966;2023-05-14T10:21:05;5.97;;;5.38;;
17955;SDS011;27666;51.498;11.966;2023-05-14T10:23:53;6.90;;;5.30;;
17955;SDS011;27666;51.498;11.966;2023-05-14T10:26:39;6.88;;;4.95;;
17955;SDS011;27666;51.498;11.966;2023-05-14T10:29:33;5.72;;;4.97;;
17955;SDS011;27666;51.498;11.966;2023-05-14T10:32:20;6.07;;;5.47;;
17955;SDS011;27666;51.498;11.966;2023-05-14T10:35:17;7.35;;;5.60;;
17955;SDS011;27666;51.498;11.966;2023-05-14T10:38:09;8.90;;;5.10;;
17955;SDS011;27666;51.498;11.966;2023-05-14T10:40:56;7.80;;;4.57;;
17955;SDS011;27666;51.498;11.966;2023-05-14T10:43:44;10.07;;;5.50;;
17955;SDS011;27666;51.498;11.966;2023-05-14T10:46:32;7.93;;;4.78;;
17955;SDS011;27666;51.498;11.966;2023-05-14T10:49:18;4.97;;;4.45;;
17955;SDS011;27666;51.498;11.966;2023-05-14T10:52:27;5.40;;;4.63;;
17955;SDS011;27666;51.498;11.966;2023-05-14T10:55:14;5.10;;;4.60;;
17955;SDS011;27666;51.498;11.966;2023-05-14T10:58:02;5.35;;;4.65;;
17955;SDS011;27666;51.498;11.966;2023-05-14T11:00:49;5.82;;;4.88;;
17955;SDS011;27666;51.498;11.966;2023-05-14T11:03:42;7.63;;;4.55;;
17955;SDS011;27666;51.498;11.966;2023-05-14T11:06:30;4.95;;;4.45;;
17955;SDS011;27666;51.498;11.966;2023-05-14T11:09:18;7.45;;;5.43;;
17955;SDS011;27666;51.498;11.966;2023-05-14T11:12:07;6.18;;;5.10;;
17955;SDS011;27666;51.498;11.966;2023-05-14T11:14:53;7.43;;;4.68;;
17955;SDS011;27666;51.498;11.966;2023-05-14T11:17:42;7.53;;;4.70;;
17955;SDS011;27666;51.498;11.966;2023-05-14T11:20:30;8.68;;;5.57;;
17955;SDS011;27666;51.498;11.966;2023-05-14T11:23:17;10.20;;;5.03;;
17955;SDS011;27666;51.498;11.966;2023-05-14T11:26:05;6.50;;;4.70;;
17955;SDS011;27666;51.498;11.966;2023-05-14T11:28:52;6.78;;;5.22;;
17955;SDS011;27666;51.498;11.966;2023-05-14T11:31:39;7.72;;;4.90;;
17955;SDS011;27666;51.498;11.966;2023-05-14T11:34:25;8.45;;;5.60;;
17955;SDS011;27666;51.498;11.966;2023-05-14T11:37:13;8.13;;;5.60;;
17955;SDS011;27666;51.498;11.966;2023-05-14T11:40:01;8.93;;;5.00;;
17955;SDS011;27666;51.498;11.966;2023-05-14T11:42:51;9.75;;;5.40;;
17955;SDS011;27666;51.498;11.966;2023-05-14T11:45:38;7.00;;;5.72;;
17955;SDS011;27666;51.498;11.966;2023-05-14T11:48:24;7.53;;;5.53;;
17955;SDS011;27666;51.498;11.966;2023-05-14T11:51:10;6.63;;;5.50;;
17955;SDS011;27666;51.498;11.966;2023-05-14T11:53:57;6.28;;;5.35;;
17955;SDS011;27666;51.498;11.966;2023-05-14T11:56:48;8.25;;;5.20;;
17955;SDS011;27666;51.498;11.966;2023-05-14T11:59:37;7.55;;;5.32;;
17955;SDS011;27666;51.498;11.966;2023-05-14T12:02:25;8.52;;;5.20;;
17955;SDS011;27666;51.498;11.966;2023-05-14T12:05:12;6.28;;;5.28;;
17955;SDS011;27666;51.498;11.966;2023-05-14T12:07:59;6.88;;;5.32;;
17955;SDS011;27666;51.498;11.966;2023-05-14T12:10:46;8.90;;;5.45;;
17955;SDS011;27666;51.498;11.966;2023-05-14T12:13:32;7.15;;;5.40;;
17955;SDS011;27666;51.498;11.966;2023-05-14T12:16:20;7.95;;;5.88;;
17955;SDS011;27666;51.498;11.966;2023-05-14T12:19:07;12.30;;;5.90;;
17955;SDS011;27666;51.498;11.966;2023-05-14T12:21:55;6.10;;;5.20;;
17955;SDS011;27666;51.498;11.966;2023-05-14T12:24:51;5.78;;;5.18;;
17955;SDS011;27666;51.498;11.966;2023-05-14T12:27:38;6.03;;;5.43;;
17955;SDS011;27666;51.498;11.966;2023-05-14T12:30:24;7.00;;;5.20;;
17955;SDS011;27666;51.498;11.966;2023-05-14T12:33:13;7.72;;;6.05;;
17955;SDS011;27666;51.498;11.966;2023-05-14T12:36:00;8.07;;;5.55;;
17955;SDS011;27666;51.498;11.966;2023-05-14T12:39:05;9.60;;;5.70;;
17955;SDS011;27666;51.498;11.966;2023-05-14T12:41:51;7.90;;;5.38;;
17955;SDS011;27666;51.498;11.966;2023-05-14T12:44:37;9.15;;;5.38;;
17955;SDS011;27666;51.498;11.966;2023-05-14T12:47:24;7.82;;;5.43;;
17955;SDS011;27666;51.498;11.966;2023-05-14T12:50:12;10.13;;;5.45;;
17955;SDS011;27666;51.498;11.966;2023-05-14T12:52:59;6.78;;;5.28;;
17955;SDS011;27666;51.498;11.966;2023-05-14T12:55:45;8.18;;;5.20;;
17955;SDS011;27666;51.498;11.966;2023-05-14T12:58:33;6.60;;;5.57;;
17955;SDS011;27666;51.498;11.966;2023-05-14T13:01:20;5.57;;;5.07;;
17955;SDS011;27666;51.498;11.966;2023-05-14T13:04:08;7.05;;;4.60;;
17955;SDS011;27666;51.498;11.966;2023-05-14T13:06:57;8.02;;;5.13;;
17955;SDS011;27666;51.498;11.966;2023-05-14T13:09:44;6.10;;;5.40;;
17955;SDS011;27666;51.498;11.966;2023-05-14T13:12:30;6.05;;;5.45;;
17955;SDS011;27666;51.498;11.966;2023-05-14T13:15:17;6.10;;;5.18;;
17955;SDS011;27666;51.498;11.966;2023-05-14T13:18:03;6.93;;;5.97;;
17955;SDS011;27666;51.498;11.966;2023-05-14T13:20:50;5.93;;;5.15;;
17955;SDS011;27666;51.498;11.966;2023-05-14T13:23:37;5.82;;;5.00;;
17955;SDS011;27666;51.498;11.966;2023-05-14T13:26:24;6.88;;;5.28;;
17955;SDS011;27666;51.498;11.966;2023-05-14T13:29:11;10.52;;;5.13;;
17955;SDS011;27666;51.498;11.966;2023-05-14T13:31:58;5.95;;;4.75;;
17955;SDS011;27666;51.498;11.966;2023-05-14T13:34:44;5.35;;;4.57;;
17955;SDS011;27666;51.498;11.966;2023-05-14T13:37:31;7.32;;;4.65;;
17955;SDS011;27666;51.498;11.966;2023-05-14T13:40:19;5.20;;;4.25;;
17955;SDS011;27666;51.498;11.966;2023-05-14T13:43:05;5.85;;;4.68;;
17955;SDS011;27666;51.498;11.966;2023-05-14T13:45:53;6.75;;;4.70;;
17955;SDS011;27666;51.498;11.966;2023-05-14T13:48:39;7.15;;;4.82;;
17955;SDS011;27666;51.498;11.966;2023-05-14T13:51:26;5.15;;;4.60;;
17955;SDS011;27666;51.498;11.966;2023-05-14T13:54:12;7.55;;;4.07;;
17955;SDS011;27666;51.498;11.966;2023-05-14T13:57:00;9.00;;;4.72;;
17955;SDS011;27666;51.498;11.966;2023-05-14T13:59:46;6.63;;;4.47;;
17955;SDS011;27666;51.498;11.966;2023-05-14T14:02:33;5.55;;;4.50;;
17955;SDS011;27666;51.498;11.966;2023-05-14T14:05:20;7.32;;;4.70;;
17955;SDS011;27666;51.498;11.966;2023-05-14T14:08:08;5.78;;;4.70;;
17955;SDS011;27666;51.498;11.966;2023-05-14T14:11:08;5.57;;;4.25;;
17955;SDS011;27666;51.498;11.966;2023-05-14T14:13:55;7.50;;;4.85;;
17955;SDS011;27666;51.498;11.966;2023-05-14T14:16:42;6.68;;;5.60;;
17955;SDS011;27666;51.498;11.966;2023-05-14T14:19:29;5.70;;;5.20;;
17955;SDS011;27666;51.498;11.966;2023-05-14T14:22:15;6.85;;;5.20;;
17955;SDS011;27666;51.498;11.966;2023-05-14T14:25:02;6.80;;;5.18;;
17955;SDS011;27666;51.498;11.966;2023-05-14T14:27:48;5.95;;;5.05;;
17955;SDS011;27666;51.498;11.966;2023-05-14T14:30:36;5.70;;;5.13;;
17955;SDS011;27666;51.498;11.966;2023-05-14T14:33:23;7.00;;;5.20;;
17955;SDS011;27666;51.498;11.966;2023-05-14T14:36:10;7.38;;;5.57;;
17955;SDS011;27666;51.498;11.966;2023-05-14T14:38:57;7.80;;;5.70;;
17955;SDS011;27666;51.498;11.966;2023-05-14T14:41:43;6.30;;;5.65;;
17955;SDS011;27666;51.498;11.966;2023-05-14T14:44:31;6.68;;;4.80;;
17955;SDS011;27666;51.498;11.966;2023-05-14T14:47:19;6.97;;;5.30;;
17955;SDS011;27666;51.498;11.966;2023-05-14T14:50:06;9.25;;;5.75;;
17955;SDS011;27666;51.498;11.966;2023-05-14T14:52:53;8.38;;;5.57;;
17955;SDS011;27666;51.498;11.966;2023-05-14T14:55:39;8.43;;;5.53;;
17955;SDS011;27666;51.498;11.966;2023-05-14T14:58:26;6.10;;;5.50;;
17955;SDS011;27666;51.498;11.966;2023-05-14T15:01:13;6.70;;;5.28;;
17955;SDS011;27666;51.498;11.966;2023-05-14T15:04:01;7.30;;;5.35;;
17955;SDS011;27666;51.498;11.966;2023-05-14T15:06:48;5.65;;;5.07;;
17955;SDS011;27666;51.498;11.966;2023-05-14T15:09:34;6.30;;;4.95;;
17955;SDS011;27666;51.498;11.966;2023-05-14T15:12:21;6.78;;;4.97;;
17955;SDS011;27666;51.498;11.966;2023-05-14T15:15:08;7.55;;;5.20;;
17955;SDS011;27666;51.498;11.966;2023-05-14T15:17:55;5.65;;;4.70;;
17955;SDS011;27666;51.498;11.966;2023-05-14T15:20:43;5.20;;;4.72;;
17955;SDS011;27666;51.498;11.966;2023-05-14T15:23:30;6.95;;;4.95;;
17955;SDS011;27666;51.498;11.966;2023-05-14T15:26:16;6.32;;;4.53;;
17955;SDS011;27666;51.498;11.966;2023-05-14T15:29:02;5.35;;;4.70;;
17955;SDS011;27666;51.498;11.966;2023-05-14T15:31:49;5.25;;;4.72;;
17955;SDS011;27666;51.498;11.966;2023-05-14T15:34:36;4.88;;;4.45;;
17955;SDS011;27666;51.498;11.966;2023-05-14T15:37:24;4.63;;;4.22;;
17955;SDS011;27666;51.498;11.966;2023-05-14T15:40:11;6.47;;;4.82;;
17955;SDS011;27666;51.498;11.966;2023-05-14T15:42:58;5.35;;;4.50;;
17955;SDS011;27666;51.498;11.966;2023-05-14T15:45:44;5.85;;;4.82;;
17955;SDS011;27666;51.498;11.966;2023-05-14T15:48:32;5.13;;;4.63;;
17955;SDS011;27666;51.498;11.966;2023-05-14T15:51:21;4.97;;;4.20;;
17955;SDS011;27666;51.498;11.966;2023-05-14T15:54:09;6.65;;;5.28;;
17955;SDS011;27666;51.498;11.966;2023-05-14T15:56:55;4.97;;;4.22;;
17955;SDS011;27666;51.498;11.966;2023-05-14T15:59:42;7.82;;;4.50;;
17955;SDS011;27666;51.498;11.966;2023-05-14T16:02:29;5.57;;;4.65;;
17955;SDS011;27666;51.498;11.966;2023-05-14T16:05:17;5.10;;;4.60;;
17955;SDS011;27666;51.498;11.966;2023-05-14T16:08:04;4.95;;;4.28;;
17955;SDS011;27666;51.498;11.966;2023-05-14T16:10:52;4.43;;;4.03;;
17955;SDS011;27666;51.498;11.966;2023-05-14T16:13:38;7.90;;;4.40;;
17955;SDS011;27666;51.498;11.966;2023-05-14T16:16:25;4.97;;;4.55;;
17955;SDS011;27666;51.498;11.966;2023-05-14T16:19:11;7.20;;;4.78;;
17955;SDS011;27666;51.498;11.966;2023-05-14T16:21:58;6.32;;;4.50;;
17955;SDS011;27666;51.498;11.966;2023-05-14T16:24:44;5.13;;;4.55;;
17955;SDS011;27666;51.498;11.966;2023-05-14T16:27:32;5.15;;;4.22;;
17955;SDS011;27666;51.498;11.966;2023-05-14T16:30:19;7.78;;;4.75;;
17955;SDS011;27666;51.498;11.966;2023-05-14T16:33:06;6.70;;;4.50;;